sensor_id;sensor_type;location;lat;lon;timestamp;temperature;humidity
3190;DHT22;1606;51.946;10.558;2023-04-24T00:02:21;16.30;99.90
3190;DHT22;1606;51.946;10.558;2023-04-24T00:04:49;16.40;99.90
3190;DHT22;1606;51.946;10.558;2023-04-24T00:07:17;16.50;99.90
3190;DHT22;1606;51.946;10.558;2023-04-24T00:09:46;16.60;99.90
3190;DHT22;1606;51.946;10.558;2023-04-24T00:12:14;16.50;99.90
3190;DHT22;1606;51.946;10.558;2023-04-24T00:14:43;16.30;99.90
3190;DHT22;1606;51.946;10.558;2023-04-24T00:17:11;16.20;99.90
3190;DHT22;1606;51.946;10.558;2023-04-24T00:19:38;16.10;99.90
3190;DHT22;1606;51.946;10.558;2023-04-24T00:22:07;16.10;99.90
3190;DHT22;1606;51.946;10.558;2023-04-24T00:24:35;16.30;99.90
3190;DHT22;1606;51.946;10.558;2023-04-24T00:27:03;16.40;99.90
3190;DHT22;1606;51.946;10.558;2023-04-24T00:29:30;16.40;99.90
3190;DHT22;1606;51.946;10.558;2023-04-24T00:31:59;16.20;99.90
3190;DHT22;1606;51.946;10.558;2023-04-24T00:34:27;16.00;99.90
3190;DHT22;1606;51.946;10.558;2023-04-24T00:36:55;16.10;99.90
3190;DHT22;1606;51.946;10.558;2023-04-24T00:39:23;16.00;99.90
3190;DHT22;1606;51.946;10.558;2023-04-24T00:41:51;16.00;99.90
3190;DHT22;1606;51.946;10.558;2023-04-24T00:44:20;16.00;99.90
3190;DHT22;1606;51.946;10.558;2023-04-24T00:46:47;16.10;99.90
3190;DHT22;1606;51.946;10.558;2023-04-24T00:49:20;16.10;99.90
3190;DHT22;1606;51.946;10.558;2023-04-24T00:51:48;16.20;99.90
3190;DHT22;1606;51.946;10.558;2023-04-24T00:54:18;16.30;99.90
3190;DHT22;1606;51.946;10.558;2023-04-24T00:56:46;16.30;99.90
3190;DHT22;1606;51.946;10.558;2023-04-24T00:59:16;16.30;99.90
3190;DHT22;1606;51.946;10.558;2023-04-24T01:01:44;16.30;99.90
3190;DHT22;1606;51.946;10.558;2023-04-24T01:04:13;16.30;99.90
3190;DHT22;1606;51.946;10.558;2023-04-24T01:06:44;16.10;99.90
3190;DHT22;1606;51.946;10.558;2023-04-24T01:09:12;16.10;99.90
3190;DHT22;1606;51.946;10.558;2023-04-24T01:11:41;16.10;99.90
3190;DHT22;1606;51.946;10.558;2023-04-24T01:14:09;16.00;99.90
3190;DHT22;1606;51.946;10.558;2023-04-24T01:16:37;16.00;99.90
3190;DHT22;1606;51.946;10.558;2023-04-24T01:19:06;16.00;99.90
3190;DHT22;1606;51.946;10.558;2023-04-24T01:21:36;16.00;99.90
3190;DHT22;1606;51.946;10.558;2023-04-24T01:24:06;15.80;99.90
3190;DHT22;1606;51.946;10.558;2023-04-24T01:26:34;15.80;99.90
3190;DHT22;1606;51.946;10.558;2023-04-24T01:29:02;15.80;99.90
3190;DHT22;1606;51.946;10.558;2023-04-24T01:31:30;15.70;99.90
3190;DHT22;1606;51.946;10.558;2023-04-24T01:33:58;15.70;99.90
3190;DHT22;1606;51.946;10.558;2023-04-24T01:36:27;15.60;99.90
3190;DHT22;1606;51.946;10.558;2023-04-24T01:38:56;15.50;99.90
3190;DHT22;1606;51.946;10.558;2023-04-24T01:41:25;15.40;99.90
3190;DHT22;1606;51.946;10.558;2023-04-24T01:43:53;15.40;99.90
3190;DHT22;1606;51.946;10.558;2023-04-24T01:46:22;15.30;99.90
3190;DHT22;1606;51.946;10.558;2023-04-24T01:48:51;15.40;99.90
3190;DHT22;1606;51.946;10.558;2023-04-24T01:51:19;15.20;99.90
3190;DHT22;1606;51.946;10.558;2023-04-24T01:53:47;15.00;99.90
3190;DHT22;1606;51.946;10.558;2023-04-24T01:56:15;15.00;99.90
3190;DHT22;1606;51.946;10.558;2023-04-24T01:58:44;15.00;99.90
3190;DHT22;1606;51.946;10.558;2023-04-24T02:01:15;14.90;99.90
3190;DHT22;1606;51.946;10.558;2023-04-24T02:03:45;15.00;99.90
3190;DHT22;1606;51.946;10.558;2023-04-24T02:06:13;15.00;99.90
3190;DHT22;1606;51.946;10.558;2023-04-24T02:08:41;15.10;99.90
3190;DHT22;1606;51.946;10.558;2023-04-24T02:11:09;14.90;99.90
3190;DHT22;1606;51.946;10.558;2023-04-24T02:13:36;14.80;99.90
3190;DHT22;1606;51.946;10.558;2023-04-24T02:16:06;14.70;99.90
3190;DHT22;1606;51.946;10.558;2023-04-24T02:18:33;14.80;99.90
3190;DHT22;1606;51.946;10.558;2023-04-24T02:21:01;15.00;99.90
3190;DHT22;1606;51.946;10.558;2023-04-24T02:23:29;15.10;99.90
3190;DHT22;1606;51.946;10.558;2023-04-24T02:25:57;15.10;99.90
3190;DHT22;1606;51.946;10.558;2023-04-24T02:28:24;15.00;99.90
3190;DHT22;1606;51.946;10.558;2023-04-24T02:30:52;14.90;99.90
3190;DHT22;1606;51.946;10.558;2023-04-24T02:33:21;14.80;99.90
3190;DHT22;1606;51.946;10.558;2023-04-24T02:35:49;14.80;99.90
3190;DHT22;1606;51.946;10.558;2023-04-24T02:38:17;14.80;99.90
3190;DHT22;1606;51.946;10.558;2023-04-24T02:40:44;14.80;99.90
3190;DHT22;1606;51.946;10.558;2023-04-24T02:43:12;14.90;99.90
3190;DHT22;1606;51.946;10.558;2023-04-24T02:45:40;14.90;99.90
3190;DHT22;1606;51.946;10.558;2023-04-24T02:48:08;14.90;99.90
3190;DHT22;1606;51.946;10.558;2023-04-24T02:50:37;15.00;99.90
3190;DHT22;1606;51.946;10.558;2023-04-24T02:53:05;15.10;99.90
3190;DHT22;1606;51.946;10.558;2023-04-24T02:55:32;15.10;99.90
3190;DHT22;1606;51.946;10.558;2023-04-24T02:58:00;15.10;99.90
3190;DHT22;1606;51.946;10.558;2023-04-24T03:00:28;15.10;99.90
3190;DHT22;1606;51.946;10.558;2023-04-24T03:02:56;15.00;99.90
3190;DHT22;1606;51.946;10.558;2023-04-24T03:05:24;14.60;99.90
3190;DHT22;1606;51.946;10.558;2023-04-24T03:07:53;14.60;99.90
3190;DHT22;1606;51.946;10.558;2023-04-24T03:10:21;14.70;99.90
3190;DHT22;1606;51.946;10.558;2023-04-24T03:12:49;14.80;99.90
3190;DHT22;1606;51.946;10.558;2023-04-24T03:15:17;14.80;99.90
3190;DHT22;1606;51.946;10.558;2023-04-24T03:17:45;14.80;99.90
3190;DHT22;1606;51.946;10.558;2023-04-24T03:20:13;14.70;99.90
3190;DHT22;1606;51.946;10.558;2023-04-24T03:22:41;14.70;99.90
3190;DHT22;1606;51.946;10.558;2023-04-24T03:25:10;14.80;99.90
3190;DHT22;1606;51.946;10.558;2023-04-24T03:27:38;14.70;99.90
3190;DHT22;1606;51.946;10.558;2023-04-24T03:30:07;14.80;99.90
3190;DHT22;1606;51.946;10.558;2023-04-24T03:32:35;14.80;99.90
3190;DHT22;1606;51.946;10.558;2023-04-24T03:35:03;14.70;99.90
3190;DHT22;1606;51.946;10.558;2023-04-24T03:37:31;14.80;99.90
3190;DHT22;1606;51.946;10.558;2023-04-24T03:39:59;14.70;99.90
3190;DHT22;1606;51.946;10.558;2023-04-24T03:42:28;14.70;99.90
3190;DHT22;1606;51.946;10.558;2023-04-24T03:44:56;14.70;99.90
3190;DHT22;1606;51.946;10.558;2023-04-24T03:47:23;14.70;99.90
3190;DHT22;1606;51.946;10.558;2023-04-24T03:49:51;14.70;99.90
3190;DHT22;1606;51.946;10.558;2023-04-24T03:52:20;14.80;99.90
3190;DHT22;1606;51.946;10.558;2023-04-24T03:54:48;14.70;99.90
3190;DHT22;1606;51.946;10.558;2023-04-24T03:57:16;14.70;99.90
3190;DHT22;1606;51.946;10.558;2023-04-24T03:59:45;14.60;99.90
3190;DHT22;1606;51.946;10.558;2023-04-24T04:02:13;14.50;99.90
3190;DHT22;1606;51.946;10.558;2023-04-24T04:04:40;14.60;99.90
3190;DHT22;1606;51.946;10.558;2023-04-24T04:07:08;14.70;99.90
3190;DHT22;1606;51.946;10.558;2023-04-24T04:09:37;14.70;99.90
3190;DHT22;1606;51.946;10.558;2023-04-24T04:12:05;14.80;99.90
3190;DHT22;1606;51.946;10.558;2023-04-24T04:14:33;14.70;99.90
3190;DHT22;1606;51.946;10.558;2023-04-24T04:17:02;14.50;99.90
3190;DHT22;1606;51.946;10.558;2023-04-24T04:19:30;14.50;99.90
3190;DHT22;1606;51.946;10.558;2023-04-24T04:21:57;14.40;99.90
3190;DHT22;1606;51.946;10.558;2023-04-24T04:24:25;14.60;99.90
3190;DHT22;1606;51.946;10.558;2023-04-24T04:26:53;14.50;99.90
3190;DHT22;1606;51.946;10.558;2023-04-24T04:29:23;14.40;99.90
3190;DHT22;1606;51.946;10.558;2023-04-24T04:31:50;14.40;99.90
3190;DHT22;1606;51.946;10.558;2023-04-24T04:34:20;14.50;99.90
3190;DHT22;1606;51.946;10.558;2023-04-24T04:36:49;14.30;99.90
3190;DHT22;1606;51.946;10.558;2023-04-24T04:39:17;14.50;99.90
3190;DHT22;1606;51.946;10.558;2023-04-24T04:41:45;14.50;99.90
3190;DHT22;1606;51.946;10.558;2023-04-24T04:44:15;14.50;99.90
3190;DHT22;1606;51.946;10.558;2023-04-24T04:46:43;14.50;99.90
3190;DHT22;1606;51.946;10.558;2023-04-24T04:49:10;14.40;99.90
3190;DHT22;1606;51.946;10.558;2023-04-24T04:51:40;14.50;99.90
3190;DHT22;1606;51.946;10.558;2023-04-24T04:54:08;14.40;99.90
3190;DHT22;1606;51.946;10.558;2023-04-24T04:56:36;14.50;99.90
3190;DHT22;1606;51.946;10.558;2023-04-24T04:59:04;14.60;99.90
3190;DHT22;1606;51.946;10.558;2023-04-24T05:01:32;14.50;99.90
3190;DHT22;1606;51.946;10.558;2023-04-24T05:04:00;14.70;99.90
3190;DHT22;1606;51.946;10.558;2023-04-24T05:06:28;14.60;99.90
3190;DHT22;1606;51.946;10.558;2023-04-24T05:08:58;14.50;99.90
3190;DHT22;1606;51.946;10.558;2023-04-24T05:11:26;14.20;99.90
3190;DHT22;1606;51.946;10.558;2023-04-24T05:13:54;14.30;99.90
3190;DHT22;1606;51.946;10.558;2023-04-24T05:16:21;14.30;99.90
3190;DHT22;1606;51.946;10.558;2023-04-24T05:18:49;14.30;99.90
3190;DHT22;1606;51.946;10.558;2023-04-24T05:21:17;14.40;99.90
3190;DHT22;1606;51.946;10.558;2023-04-24T05:23:45;14.40;99.90
3190;DHT22;1606;51.946;10.558;2023-04-24T05:26:14;14.50;99.90
3190;DHT22;1606;51.946;10.558;2023-04-24T05:28:42;14.50;99.90
3190;DHT22;1606;51.946;10.558;2023-04-24T05:31:10;14.40;99.90
3190;DHT22;1606;51.946;10.558;2023-04-24T05:33:39;14.50;99.90
3190;DHT22;1606;51.946;10.558;2023-04-24T05:36:07;14.40;99.90
3190;DHT22;1606;51.946;10.558;2023-04-24T05:38:35;14.50;99.90
3190;DHT22;1606;51.946;10.558;2023-04-24T05:41:03;14.60;99.90
3190;DHT22;1606;51.946;10.558;2023-04-24T05:43:32;14.60;99.90
3190;DHT22;1606;51.946;10.558;2023-04-24T05:45:59;14.60;99.90
3190;DHT22;1606;51.946;10.558;2023-04-24T05:48:27;14.50;99.90
3190;DHT22;1606;51.946;10.558;2023-04-24T05:50:55;14.70;99.90
3190;DHT22;1606;51.946;10.558;2023-04-24T05:53:23;14.80;99.90
3190;DHT22;1606;51.946;10.558;2023-04-24T05:55:50;14.90;99.90
3190;DHT22;1606;51.946;10.558;2023-04-24T05:58:18;15.00;99.90
3190;DHT22;1606;51.946;10.558;2023-04-24T06:00:47;14.90;99.90
3190;DHT22;1606;51.946;10.558;2023-04-24T06:03:16;14.90;99.90
3190;DHT22;1606;51.946;10.558;2023-04-24T06:05:44;15.10;99.90
3190;DHT22;1606;51.946;10.558;2023-04-24T06:08:12;15.20;99.90
3190;DHT22;1606;51.946;10.558;2023-04-24T06:10:40;15.10;99.90
3190;DHT22;1606;51.946;10.558;2023-04-24T06:13:07;15.10;99.90
3190;DHT22;1606;51.946;10.558;2023-04-24T06:15:35;15.20;99.90
3190;DHT22;1606;51.946;10.558;2023-04-24T06:18:04;15.40;99.90
3190;DHT22;1606;51.946;10.558;2023-04-24T06:20:32;15.50;99.90
3190;DHT22;1606;51.946;10.558;2023-04-24T06:23:00;15.60;99.90
3190;DHT22;1606;51.946;10.558;2023-04-24T06:25:28;15.60;99.90
3190;DHT22;1606;51.946;10.558;2023-04-24T06:27:56;15.70;99.90
3190;DHT22;1606;51.946;10.558;2023-04-24T06:30:24;15.70;99.90
3190;DHT22;1606;51.946;10.558;2023-04-24T06:32:52;15.70;99.90
3190;DHT22;1606;51.946;10.558;2023-04-24T06:35:22;15.70;99.90
3190;DHT22;1606;51.946;10.558;2023-04-24T06:37:51;15.50;99.90
3190;DHT22;1606;51.946;10.558;2023-04-24T06:40:18;15.60;99.90
3190;DHT22;1606;51.946;10.558;2023-04-24T06:42:46;15.60;99.90
3190;DHT22;1606;51.946;10.558;2023-04-24T06:45:14;15.70;99.90
3190;DHT22;1606;51.946;10.558;2023-04-24T06:47:42;15.50;99.90
3190;DHT22;1606;51.946;10.558;2023-04-24T06:50:10;15.40;99.90
3190;DHT22;1606;51.946;10.558;2023-04-24T06:52:40;15.50;99.90
3190;DHT22;1606;51.946;10.558;2023-04-24T06:55:08;15.50;99.90
3190;DHT22;1606;51.946;10.558;2023-04-24T06:57:37;15.40;99.90
3190;DHT22;1606;51.946;10.558;2023-04-24T07:00:06;15.40;99.90
3190;DHT22;1606;51.946;10.558;2023-04-24T07:02:35;15.40;99.90
3190;DHT22;1606;51.946;10.558;2023-04-24T07:05:04;15.50;99.90
3190;DHT22;1606;51.946;10.558;2023-04-24T07:07:33;15.30;99.90
3190;DHT22;1606;51.946;10.558;2023-04-24T07:10:02;15.30;99.90
3190;DHT22;1606;51.946;10.558;2023-04-24T07:12:30;15.40;99.90
3190;DHT22;1606;51.946;10.558;2023-04-24T07:14:58;15.60;99.90
3190;DHT22;1606;51.946;10.558;2023-04-24T07:17:26;15.60;99.90
3190;DHT22;1606;51.946;10.558;2023-04-24T07:19:54;15.60;99.90
3190;DHT22;1606;51.946;10.558;2023-04-24T07:22:22;15.60;99.90
3190;DHT22;1606;51.946;10.558;2023-04-24T07:24:49;15.70;99.90
3190;DHT22;1606;51.946;10.558;2023-04-24T07:27:18;15.80;99.90
3190;DHT22;1606;51.946;10.558;2023-04-24T07:29:47;15.90;99.90
3190;DHT22;1606;51.946;10.558;2023-04-24T07:32:14;15.80;99.90
3190;DHT22;1606;51.946;10.558;2023-04-24T07:34:42;15.80;99.90
3190;DHT22;1606;51.946;10.558;2023-04-24T07:37:10;15.70;99.90
3190;DHT22;1606;51.946;10.558;2023-04-24T07:39:38;15.80;99.90
3190;DHT22;1606;51.946;10.558;2023-04-24T07:42:05;15.50;99.90
3190;DHT22;1606;51.946;10.558;2023-04-24T07:44:34;14.80;99.90
3190;DHT22;1606;51.946;10.558;2023-04-24T07:47:02;14.40;99.90
3190;DHT22;1606;51.946;10.558;2023-04-24T07:49:30;14.10;99.90
3190;DHT22;1606;51.946;10.558;2023-04-24T07:52:00;13.90;99.90
3190;DHT22;1606;51.946;10.558;2023-04-24T07:54:29;13.50;99.90
3190;DHT22;1606;51.946;10.558;2023-04-24T07:56:56;13.70;99.90
3190;DHT22;1606;51.946;10.558;2023-04-24T07:59:24;13.80;99.90
3190;DHT22;1606;51.946;10.558;2023-04-24T08:01:53;13.90;99.90
3190;DHT22;1606;51.946;10.558;2023-04-24T08:04:22;14.10;99.90
3190;DHT22;1606;51.946;10.558;2023-04-24T08:06:49;14.10;99.90
3190;DHT22;1606;51.946;10.558;2023-04-24T08:09:17;14.30;99.90
3190;DHT22;1606;51.946;10.558;2023-04-24T08:11:45;14.40;99.90
3190;DHT22;1606;51.946;10.558;2023-04-24T08:14:15;14.60;99.90
3190;DHT22;1606;51.946;10.558;2023-04-24T08:16:43;14.60;99.90
3190;DHT22;1606;51.946;10.558;2023-04-24T08:19:12;14.40;99.90
3190;DHT22;1606;51.946;10.558;2023-04-24T08:21:40;14.40;99.90
3190;DHT22;1606;51.946;10.558;2023-04-24T08:24:08;14.60;99.90
3190;DHT22;1606;51.946;10.558;2023-04-24T08:26:36;14.70;99.90
3190;DHT22;1606;51.946;10.558;2023-04-24T08:29:04;14.90;99.90
3190;DHT22;1606;51.946;10.558;2023-04-24T08:31:33;15.30;99.00
3190;DHT22;1606;51.946;10.558;2023-04-24T08:34:01;15.40;97.20
3190;DHT22;1606;51.946;10.558;2023-04-24T08:36:30;15.50;98.00
3190;DHT22;1606;51.946;10.558;2023-04-24T08:39:11;15.80;97.00
3190;DHT22;1606;51.946;10.558;2023-04-24T08:41:41;15.80;95.70
3190;DHT22;1606;51.946;10.558;2023-04-24T08:44:09;15.80;95.90
3190;DHT22;1606;51.946;10.558;2023-04-24T08:46:40;15.90;96.60
3190;DHT22;1606;51.946;10.558;2023-04-24T08:49:09;15.90;94.90
3190;DHT22;1606;51.946;10.558;2023-04-24T08:51:39;15.90;94.10
3190;DHT22;1606;51.946;10.558;2023-04-24T08:54:07;15.80;93.90
3190;DHT22;1606;51.946;10.558;2023-04-24T08:56:37;15.90;93.50
3190;DHT22;1606;51.946;10.558;2023-04-24T08:59:06;15.60;91.60
3190;DHT22;1606;51.946;10.558;2023-04-24T09:01:37;15.50;93.60
3190;DHT22;1606;51.946;10.558;2023-04-24T09:04:07;15.90;93.70
3190;DHT22;1606;51.946;10.558;2023-04-24T09:06:38;15.70;91.90
3190;DHT22;1606;51.946;10.558;2023-04-24T09:09:07;15.90;92.70
3190;DHT22;1606;51.946;10.558;2023-04-24T09:11:36;16.30;93.00
3190;DHT22;1606;51.946;10.558;2023-04-24T09:14:04;16.60;92.20
3190;DHT22;1606;51.946;10.558;2023-04-24T09:16:32;16.60;92.90
3190;DHT22;1606;51.946;10.558;2023-04-24T09:19:02;16.80;90.60
3190;DHT22;1606;51.946;10.558;2023-04-24T09:21:32;16.90;91.20
3190;DHT22;1606;51.946;10.558;2023-04-24T09:24:03;16.60;91.20
3190;DHT22;1606;51.946;10.558;2023-04-24T09:26:32;16.60;90.30
3190;DHT22;1606;51.946;10.558;2023-04-24T09:29:00;16.70;91.40
3190;DHT22;1606;51.946;10.558;2023-04-24T09:31:29;16.70;90.30
3190;DHT22;1606;51.946;10.558;2023-04-24T09:33:58;16.70;89.20
3190;DHT22;1606;51.946;10.558;2023-04-24T09:36:29;16.40;90.50
3190;DHT22;1606;51.946;10.558;2023-04-24T09:39:02;16.60;90.40
3190;DHT22;1606;51.946;10.558;2023-04-24T09:41:32;16.80;90.30
3190;DHT22;1606;51.946;10.558;2023-04-24T09:44:11;16.80;87.40
3190;DHT22;1606;51.946;10.558;2023-04-24T09:46:41;16.90;88.30
3190;DHT22;1606;51.946;10.558;2023-04-24T09:49:11;16.80;88.40
3190;DHT22;1606;51.946;10.558;2023-04-24T09:51:39;16.70;88.30
3190;DHT22;1606;51.946;10.558;2023-04-24T09:54:14;16.60;87.40
3190;DHT22;1606;51.946;10.558;2023-04-24T09:56:44;16.30;88.10
3190;DHT22;1606;51.946;10.558;2023-04-24T09:59:13;16.40;88.00
3190;DHT22;1606;51.946;10.558;2023-04-24T10:01:42;16.40;87.80
3190;DHT22;1606;51.946;10.558;2023-04-24T10:04:19;16.30;88.50
3190;DHT22;1606;51.946;10.558;2023-04-24T10:06:53;16.30;88.30
3190;DHT22;1606;51.946;10.558;2023-04-24T10:09:25;16.50;90.20
3190;DHT22;1606;51.946;10.558;2023-04-24T10:11:54;16.70;89.20
3190;DHT22;1606;51.946;10.558;2023-04-24T10:14:23;16.50;88.80
3190;DHT22;1606;51.946;10.558;2023-04-24T10:16:53;16.60;89.10
3190;DHT22;1606;51.946;10.558;2023-04-24T10:19:25;16.60;89.00
3190;DHT22;1606;51.946;10.558;2023-04-24T10:21:54;16.30;90.10
3190;DHT22;1606;51.946;10.558;2023-04-24T10:24:25;16.20;90.20
3190;DHT22;1606;51.946;10.558;2023-04-24T10:26:54;16.00;90.60
3190;DHT22;1606;51.946;10.558;2023-04-24T10:29:23;15.90;90.50
3190;DHT22;1606;51.946;10.558;2023-04-24T10:31:52;15.80;91.10
3190;DHT22;1606;51.946;10.558;2023-04-24T10:34:20;16.00;90.50
3190;DHT22;1606;51.946;10.558;2023-04-24T10:36:51;16.20;91.40
3190;DHT22;1606;51.946;10.558;2023-04-24T10:39:26;16.40;89.40
3190;DHT22;1606;51.946;10.558;2023-04-24T10:41:54;16.40;91.00
3190;DHT22;1606;51.946;10.558;2023-04-24T10:44:24;16.50;88.50
3190;DHT22;1606;51.946;10.558;2023-04-24T10:46:53;16.80;89.20
3190;DHT22;1606;51.946;10.558;2023-04-24T10:49:28;17.00;89.10
3190;DHT22;1606;51.946;10.558;2023-04-24T10:52:01;17.10;89.60
3190;DHT22;1606;51.946;10.558;2023-04-24T10:54:36;16.80;85.80
3190;DHT22;1606;51.946;10.558;2023-04-24T10:57:26;16.40;88.60
3190;DHT22;1606;51.946;10.558;2023-04-24T11:00:12;16.50;89.00
3190;DHT22;1606;51.946;10.558;2023-04-24T11:02:41;16.40;86.80
3190;DHT22;1606;51.946;10.558;2023-04-24T11:05:16;16.40;86.50
3190;DHT22;1606;51.946;10.558;2023-04-24T11:08:12;16.60;89.60
3190;DHT22;1606;51.946;10.558;2023-04-24T11:10:43;16.90;89.40
3190;DHT22;1606;51.946;10.558;2023-04-24T11:13:14;17.20;87.00
3190;DHT22;1606;51.946;10.558;2023-04-24T11:15:42;17.20;86.40
3190;DHT22;1606;51.946;10.558;2023-04-24T11:18:13;17.00;87.50
3190;DHT22;1606;51.946;10.558;2023-04-24T11:20:43;17.00;86.40
3190;DHT22;1606;51.946;10.558;2023-04-24T11:23:12;16.60;86.60
3190;DHT22;1606;51.946;10.558;2023-04-24T11:25:42;16.40;87.60
3190;DHT22;1606;51.946;10.558;2023-04-24T11:28:14;16.70;89.30
3190;DHT22;1606;51.946;10.558;2023-04-24T11:30:43;17.10;88.40
3190;DHT22;1606;51.946;10.558;2023-04-24T11:33:20;17.30;87.80
3190;DHT22;1606;51.946;10.558;2023-04-24T11:35:48;17.50;86.80
3190;DHT22;1606;51.946;10.558;2023-04-24T11:38:17;17.70;86.90
3190;DHT22;1606;51.946;10.558;2023-04-24T11:40:52;17.50;84.90
3190;DHT22;1606;51.946;10.558;2023-04-24T11:43:20;17.10;86.30
3190;DHT22;1606;51.946;10.558;2023-04-24T11:45:48;17.00;88.70
3190;DHT22;1606;51.946;10.558;2023-04-24T11:48:19;17.40;87.30
3190;DHT22;1606;51.946;10.558;2023-04-24T11:50:50;17.20;86.90
3190;DHT22;1606;51.946;10.558;2023-04-24T11:53:19;17.30;85.70
3190;DHT22;1606;51.946;10.558;2023-04-24T11:55:47;17.30;85.70
3190;DHT22;1606;51.946;10.558;2023-04-24T11:58:20;17.00;87.30
3190;DHT22;1606;51.946;10.558;2023-04-24T12:00:56;17.10;87.30
3190;DHT22;1606;51.946;10.558;2023-04-24T12:03:24;16.90;86.20
3190;DHT22;1606;51.946;10.558;2023-04-24T12:05:52;16.80;89.20
3190;DHT22;1606;51.946;10.558;2023-04-24T12:08:27;17.00;88.50
3190;DHT22;1606;51.946;10.558;2023-04-24T12:10:55;16.60;91.20
3190;DHT22;1606;51.946;10.558;2023-04-24T12:13:26;16.20;95.30
3190;DHT22;1606;51.946;10.558;2023-04-24T12:15:54;16.20;92.30
3190;DHT22;1606;51.946;10.558;2023-04-24T12:18:22;16.20;92.60
3190;DHT22;1606;51.946;10.558;2023-04-24T12:20:50;16.40;91.90
3190;DHT22;1606;51.946;10.558;2023-04-24T12:23:33;16.40;90.60
3190;DHT22;1606;51.946;10.558;2023-04-24T12:26:03;16.50;90.60
3190;DHT22;1606;51.946;10.558;2023-04-24T12:28:36;16.50;90.50
3190;DHT22;1606;51.946;10.558;2023-04-24T12:31:06;16.40;91.40
3190;DHT22;1606;51.946;10.558;2023-04-24T12:33:35;16.40;91.60
3190;DHT22;1606;51.946;10.558;2023-04-24T12:36:03;16.20;91.70
3190;DHT22;1606;51.946;10.558;2023-04-24T12:38:32;16.20;91.50
3190;DHT22;1606;51.946;10.558;2023-04-24T12:41:08;16.20;92.20
3190;DHT22;1606;51.946;10.558;2023-04-24T12:43:37;16.30;92.20
3190;DHT22;1606;51.946;10.558;2023-04-24T12:46:05;16.20;94.10
3190;DHT22;1606;51.946;10.558;2023-04-24T12:48:33;15.70;95.00
3190;DHT22;1606;51.946;10.558;2023-04-24T12:51:01;15.20;97.70
3190;DHT22;1606;51.946;10.558;2023-04-24T12:53:29;15.20;97.20
3190;DHT22;1606;51.946;10.558;2023-04-24T12:55:57;15.00;96.80
3190;DHT22;1606;51.946;10.558;2023-04-24T12:58:25;14.80;97.90
3190;DHT22;1606;51.946;10.558;2023-04-24T13:00:54;14.50;97.30
3190;DHT22;1606;51.946;10.558;2023-04-24T13:03:22;14.80;96.90
3190;DHT22;1606;51.946;10.558;2023-04-24T13:05:50;14.80;96.70
3190;DHT22;1606;51.946;10.558;2023-04-24T13:08:18;15.10;95.80
3190;DHT22;1606;51.946;10.558;2023-04-24T13:10:46;15.20;96.20
3190;DHT22;1606;51.946;10.558;2023-04-24T13:13:14;15.20;96.80
3190;DHT22;1606;51.946;10.558;2023-04-24T13:15:42;15.00;97.20
3190;DHT22;1606;51.946;10.558;2023-04-24T13:18:11;14.50;99.40
3190;DHT22;1606;51.946;10.558;2023-04-24T13:20:39;13.90;99.90
3190;DHT22;1606;51.946;10.558;2023-04-24T13:23:08;13.50;99.90
3190;DHT22;1606;51.946;10.558;2023-04-24T13:25:36;13.40;99.90
3190;DHT22;1606;51.946;10.558;2023-04-24T13:28:05;13.30;99.90
3190;DHT22;1606;51.946;10.558;2023-04-24T13:30:33;13.30;99.90
3190;DHT22;1606;51.946;10.558;2023-04-24T13:33:01;13.50;99.90
3190;DHT22;1606;51.946;10.558;2023-04-24T13:35:31;13.70;99.90
3190;DHT22;1606;51.946;10.558;2023-04-24T13:37:59;13.60;99.60
3190;DHT22;1606;51.946;10.558;2023-04-24T13:40:27;13.50;99.90
3190;DHT22;1606;51.946;10.558;2023-04-24T13:42:55;13.30;99.20
3190;DHT22;1606;51.946;10.558;2023-04-24T13:45:23;13.20;99.30
3190;DHT22;1606;51.946;10.558;2023-04-24T13:47:52;13.10;99.50
3190;DHT22;1606;51.946;10.558;2023-04-24T13:50:20;13.00;99.60
3190;DHT22;1606;51.946;10.558;2023-04-24T13:52:49;13.10;99.90
3190;DHT22;1606;51.946;10.558;2023-04-24T13:55:17;13.30;99.90
3190;DHT22;1606;51.946;10.558;2023-04-24T13:57:45;13.40;99.40
3190;DHT22;1606;51.946;10.558;2023-04-24T14:00:13;13.20;99.20
3190;DHT22;1606;51.946;10.558;2023-04-24T14:02:41;13.10;99.80
3190;DHT22;1606;51.946;10.558;2023-04-24T14:05:09;13.30;99.90
3190;DHT22;1606;51.946;10.558;2023-04-24T14:07:37;13.20;99.20
3190;DHT22;1606;51.946;10.558;2023-04-24T14:10:07;13.10;99.00
3190;DHT22;1606;51.946;10.558;2023-04-24T14:12:36;12.80;99.70
3190;DHT22;1606;51.946;10.558;2023-04-24T14:15:04;13.00;99.60
3190;DHT22;1606;51.946;10.558;2023-04-24T14:17:32;12.70;99.80
3190;DHT22;1606;51.946;10.558;2023-04-24T14:20:00;12.80;99.90
3190;DHT22;1606;51.946;10.558;2023-04-24T14:22:28;12.70;99.90
3190;DHT22;1606;51.946;10.558;2023-04-24T14:24:56;12.70;99.90
3190;DHT22;1606;51.946;10.558;2023-04-24T14:27:26;12.80;99.90
3190;DHT22;1606;51.946;10.558;2023-04-24T14:29:54;12.70;99.90
3190;DHT22;1606;51.946;10.558;2023-04-24T14:32:22;12.30;99.90
3190;DHT22;1606;51.946;10.558;2023-04-24T14:34:49;12.40;99.90
3190;DHT22;1606;51.946;10.558;2023-04-24T14:37:17;12.40;99.90
3190;DHT22;1606;51.946;10.558;2023-04-24T14:39:45;12.40;99.90
3190;DHT22;1606;51.946;10.558;2023-04-24T14:42:33;11.90;99.90
3190;DHT22;1606;51.946;10.558;2023-04-24T14:45:01;11.90;99.90
3190;DHT22;1606;51.946;10.558;2023-04-24T14:47:29;12.20;99.90
3190;DHT22;1606;51.946;10.558;2023-04-24T14:49:58;12.30;99.90
3190;DHT22;1606;51.946;10.558;2023-04-24T14:52:26;12.40;99.90
3190;DHT22;1606;51.946;10.558;2023-04-24T14:54:53;12.60;99.90
3190;DHT22;1606;51.946;10.558;2023-04-24T14:57:22;12.60;99.90
3190;DHT22;1606;51.946;10.558;2023-04-24T14:59:51;12.50;99.90
3190;DHT22;1606;51.946;10.558;2023-04-24T15:02:19;12.40;99.90
3190;DHT22;1606;51.946;10.558;2023-04-24T15:04:48;12.00;99.90
3190;DHT22;1606;51.946;10.558;2023-04-24T15:07:16;11.90;99.90
3190;DHT22;1606;51.946;10.558;2023-04-24T15:09:43;11.90;99.90
3190;DHT22;1606;51.946;10.558;2023-04-24T15:12:13;12.10;99.90
3190;DHT22;1606;51.946;10.558;2023-04-24T15:14:41;12.00;99.90
3190;DHT22;1606;51.946;10.558;2023-04-24T15:17:10;12.10;99.90
3190;DHT22;1606;51.946;10.558;2023-04-24T15:19:38;12.10;99.90
3190;DHT22;1606;51.946;10.558;2023-04-24T15:22:05;12.30;99.90
3190;DHT22;1606;51.946;10.558;2023-04-24T15:24:33;12.40;99.90
3190;DHT22;1606;51.946;10.558;2023-04-24T15:27:01;12.40;99.90
3190;DHT22;1606;51.946;10.558;2023-04-24T15:29:29;12.20;99.90
3190;DHT22;1606;51.946;10.558;2023-04-24T15:31:58;11.90;99.90
3190;DHT22;1606;51.946;10.558;2023-04-24T15:34:27;11.90;99.90
3190;DHT22;1606;51.946;10.558;2023-04-24T15:36:55;11.70;99.90
3190;DHT22;1606;51.946;10.558;2023-04-24T15:39:23;12.00;99.90
3190;DHT22;1606;51.946;10.558;2023-04-24T15:41:51;11.90;99.90
3190;DHT22;1606;51.946;10.558;2023-04-24T15:44:20;11.90;99.90
3190;DHT22;1606;51.946;10.558;2023-04-24T15:46:48;11.80;99.90
3190;DHT22;1606;51.946;10.558;2023-04-24T15:49:17;11.70;99.90
3190;DHT22;1606;51.946;10.558;2023-04-24T15:51:46;12.00;99.90
3190;DHT22;1606;51.946;10.558;2023-04-24T15:54:14;12.00;99.90
3190;DHT22;1606;51.946;10.558;2023-04-24T15:56:42;12.20;99.90